createdAt,value
2023-03-16T00:02:06.205Z,1.99
2023-03-16T00:04:37.559Z,1.98
2023-03-16T00:07:05.995Z,1.96
2023-03-16T00:09:32.985Z,1.96
2023-03-16T00:12:03.417Z,1.91
2023-03-16T00:14:31.655Z,1.93
2023-03-16T00:16:58.547Z,1.92
2023-03-16T00:19:25.323Z,1.86
2023-03-16T00:21:52.799Z,1.85
2023-03-16T00:24:20.262Z,1.84
2023-03-16T00:26:48.022Z,1.84
2023-03-16T00:29:15.120Z,1.85
2023-03-16T00:31:45.269Z,1.94
2023-03-16T00:34:12.543Z,1.81
2023-03-16T00:36:39.741Z,1.77
2023-03-16T00:39:06.977Z,1.75
2023-03-16T00:41:37.820Z,1.78
2023-03-16T00:44:09.849Z,1.81
2023-03-16T00:46:36.700Z,1.75
2023-03-16T00:49:04.081Z,1.78
2023-03-16T00:51:33.937Z,1.75
2023-03-16T00:54:00.804Z,1.62
2023-03-16T00:56:27.618Z,1.65
2023-03-16T00:58:57.935Z,1.73
2023-03-16T01:01:24.969Z,1.76
2023-03-16T01:03:51.910Z,1.71
2023-03-16T01:06:20.525Z,1.73
2023-03-16T01:08:47.363Z,1.64
2023-03-16T01:11:17.372Z,1.66
2023-03-16T01:13:47.098Z,1.64
2023-03-16T01:16:14.897Z,1.64
2023-03-16T01:18:42.200Z,1.65
2023-03-16T01:21:10.013Z,1.66
2023-03-16T01:23:37.489Z,1.67
2023-03-16T01:26:04.398Z,1.67
2023-03-16T01:28:33.569Z,1.68
2023-03-16T01:31:09.368Z,1.71
2023-03-16T01:33:37.289Z,1.72
2023-03-16T01:36:06.128Z,1.71
2023-03-16T01:38:33.636Z,1.69
2023-03-16T01:41:01.600Z,1.63
2023-03-16T01:43:31.269Z,1.67
2023-03-16T01:46:07.144Z,1.68
2023-03-16T01:48:55.654Z,1.64
2023-03-16T01:51:29.664Z,1.63
2023-03-16T01:54:14.595Z,1.58
2023-03-16T01:56:59.999Z,1.57
2023-03-16T01:59:50.128Z,1.63
2023-03-16T02:02:21.472Z,1.61
2023-03-16T02:05:03.091Z,1.55
2023-03-16T02:07:34.863Z,1.56
2023-03-16T02:10:03.760Z,1.61
2023-03-16T02:12:30.875Z,1.64
2023-03-16T02:14:57.696Z,1.62
2023-03-16T02:17:28.616Z,1.54
2023-03-16T02:20:23.911Z,1.55
2023-03-16T02:22:54.202Z,1.54
2023-03-16T02:25:24.630Z,1.56
2023-03-16T02:28:04.323Z,1.49
2023-03-16T02:30:31.437Z,1.54
2023-03-16T02:32:58.650Z,1.54
2023-03-16T02:35:25.702Z,1.56
2023-03-16T02:37:52.665Z,1.58
2023-03-16T02:40:31.613Z,1.65
2023-03-16T02:43:15.656Z,1.65
2023-03-16T02:45:48.396Z,1.61
2023-03-16T02:48:37.934Z,1.55
2023-03-16T02:51:04.772Z,1.57
2023-03-16T02:53:31.621Z,1.43
2023-03-16T02:55:58.435Z,1.35
2023-03-16T02:58:25.436Z,1.24
2023-03-16T03:00:52.218Z,1.17
2023-03-16T03:03:19.102Z,1.29
2023-03-16T03:05:45.842Z,1.24
2023-03-16T03:08:13.067Z,1.18
2023-03-16T03:10:40.629Z,1.14
2023-03-16T03:13:07.427Z,1.01
2023-03-16T03:15:35.497Z,0.88
2023-03-16T03:18:02.827Z,0.84
2023-03-16T03:20:30.327Z,0.64
2023-03-16T03:22:57.338Z,0.58
2023-03-16T03:25:24.839Z,0.51
2023-03-16T03:27:54.471Z,0.53
2023-03-16T03:30:24.781Z,0.44
2023-03-16T03:32:52.428Z,0.60
2023-03-16T03:35:21.380Z,0.55
2023-03-16T03:37:48.232Z,0.51
2023-03-16T03:40:17.791Z,0.53
2023-03-16T03:42:44.480Z,0.48
2023-03-16T03:45:13.093Z,0.59
2023-03-16T03:47:43.846Z,0.55
2023-03-16T03:50:13.393Z,0.50
2023-03-16T03:52:40.109Z,0.43
2023-03-16T03:55:07.174Z,0.43
2023-03-16T03:57:33.875Z,0.44
2023-03-16T04:00:00.976Z,0.48
2023-03-16T04:02:28.605Z,0.44
2023-03-16T04:04:55.464Z,0.43
2023-03-16T04:07:22.205Z,0.35
2023-03-16T04:09:49.502Z,0.21
2023-03-16T04:12:16.262Z,0.08
2023-03-16T04:14:43.179Z,0.09
2023-03-16T04:17:10.324Z,0.08
2023-03-16T04:19:37.103Z,0.01
2023-03-16T04:22:03.824Z,-0.05
2023-03-16T04:24:34.239Z,-0.02
2023-03-16T04:27:02.747Z,-0.06
2023-03-16T04:29:29.499Z,-0.07
2023-03-16T04:31:56.199Z,-0.23
2023-03-16T04:34:25.035Z,-0.23
2023-03-16T04:36:54.769Z,-0.25
2023-03-16T04:39:21.489Z,-0.24
2023-03-16T04:41:48.597Z,-0.21
2023-03-16T04:44:15.303Z,-0.28
2023-03-16T04:46:42.230Z,-0.26
2023-03-16T04:49:10.357Z,-0.28
2023-03-16T04:51:38.293Z,-0.30
2023-03-16T04:54:05.081Z,-0.29
2023-03-16T04:56:31.833Z,-0.29
2023-03-16T04:58:58.578Z,-0.32
2023-03-16T05:01:25.474Z,-0.36
2023-03-16T05:03:52.861Z,1.12
2023-03-16T05:06:20.053Z,-0.09
2023-03-16T05:08:46.845Z,-0.34
2023-03-16T05:11:13.611Z,1.75
2023-03-16T05:13:40.346Z,0.40
2023-03-16T05:16:07.459Z,-0.08
2023-03-16T05:18:34.313Z,-0.23
2023-03-16T05:21:01.136Z,-0.31
2023-03-16T05:23:27.809Z,-0.15
2023-03-16T05:25:54.672Z,-0.12
2023-03-16T05:28:21.473Z,-0.05
2023-03-16T05:30:48.243Z,-0.24
2023-03-16T05:33:15.055Z,-0.36
2023-03-16T05:35:43.065Z,-0.40
2023-03-16T05:38:10.073Z,-0.42
2023-03-16T05:40:37.370Z,-0.42
2023-03-16T05:43:04.486Z,-0.46
2023-03-16T05:45:31.537Z,-0.37
2023-03-16T05:47:58.356Z,-0.29
2023-03-16T05:50:26.572Z,-0.15
2023-03-16T05:52:54.262Z,-0.08
2023-03-16T05:55:21.019Z,0.06
2023-03-16T05:57:47.750Z,0.27
2023-03-16T06:00:16.344Z,0.42
2023-03-16T06:02:45.012Z,0.78
2023-03-16T06:05:11.932Z,0.62
2023-03-16T06:07:38.736Z,0.39
2023-03-16T06:10:06.645Z,0.47
2023-03-16T06:12:34.504Z,0.51
2023-03-16T06:15:02.291Z,0.55
2023-03-16T06:17:29.397Z,0.73
2023-03-16T06:19:56.233Z,0.76
2023-03-16T06:22:23.974Z,0.76
2023-03-16T06:24:51.566Z,0.79
2023-03-16T06:27:20.358Z,0.99
2023-03-16T06:29:47.875Z,1.10
2023-03-16T06:32:14.771Z,1.13
2023-03-16T06:34:41.731Z,1.38
2023-03-16T06:37:08.751Z,1.34
2023-03-16T06:39:35.484Z,1.43
2023-03-16T06:42:04.588Z,1.70
2023-03-16T06:44:31.541Z,2.05
2023-03-16T06:46:58.900Z,2.10
2023-03-16T06:49:25.757Z,2.26
2023-03-16T06:51:52.677Z,2.38
2023-03-16T06:54:19.394Z,2.55
2023-03-16T06:56:46.580Z,2.94
2023-03-16T06:59:13.478Z,3.15
2023-03-16T07:01:40.225Z,3.31
2023-03-16T07:04:08.168Z,3.23
2023-03-16T07:06:35.029Z,3.36
2023-03-16T07:09:02.115Z,3.54
2023-03-16T07:11:28.890Z,3.73
2023-03-16T07:13:55.585Z,3.72
2023-03-16T07:16:22.493Z,3.70
2023-03-16T07:18:49.323Z,3.77
2023-03-16T07:21:16.185Z,3.83
2023-03-16T07:23:42.973Z,3.91
2023-03-16T07:26:09.806Z,3.93
2023-03-16T07:28:36.594Z,3.77
2023-03-16T07:31:04.524Z,3.73
2023-03-16T07:33:33.008Z,3.48
2023-03-16T07:36:00.755Z,3.54
2023-03-16T07:38:27.564Z,3.52
2023-03-16T07:40:54.353Z,4.00
2023-03-16T07:43:21.076Z,3.93
2023-03-16T07:45:52.098Z,4.23
2023-03-16T07:48:19.401Z,4.02
2023-03-16T07:50:49.653Z,4.21
2023-03-16T07:53:17.065Z,4.45
2023-03-16T07:55:44.585Z,4.16
2023-03-16T07:58:11.778Z,4.61
2023-03-16T08:00:39.665Z,4.60
2023-03-16T08:03:06.933Z,4.66
2023-03-16T08:05:34.003Z,4.76
2023-03-16T08:08:04.082Z,4.94
2023-03-16T08:10:31.633Z,4.96
2023-03-16T08:12:58.767Z,5.05
2023-03-16T08:15:25.619Z,5.18
2023-03-16T08:17:52.648Z,5.12
2023-03-16T08:20:19.618Z,5.40
2023-03-16T08:22:46.818Z,5.33
2023-03-16T08:25:14.687Z,5.56
2023-03-16T08:27:43.287Z,5.85
2023-03-16T08:30:11.966Z,6.01
2023-03-16T08:32:41.016Z,6.42
2023-03-16T08:35:16.679Z,6.79
2023-03-16T08:37:43.706Z,7.15
2023-03-16T08:40:14.142Z,7.04
2023-03-16T08:42:41.586Z,7.39
2023-03-16T08:45:12.342Z,7.38
2023-03-16T08:47:40.635Z,7.39
2023-03-16T08:50:08.681Z,7.97
2023-03-16T08:52:36.509Z,8.36
2023-03-16T08:55:05.824Z,8.19
2023-03-16T08:57:33.873Z,8.55
2023-03-16T09:00:01.356Z,8.50
2023-03-16T09:02:29.083Z,9.53
2023-03-16T09:04:56.388Z,9.51
2023-03-16T09:07:23.285Z,9.38
2023-03-16T09:09:50.880Z,9.59
2023-03-16T09:12:22.331Z,8.83
2023-03-16T09:14:49.214Z,9.55
2023-03-16T09:17:15.999Z,9.26
2023-03-16T09:19:51.684Z,9.63
2023-03-16T09:22:20.669Z,9.00
2023-03-16T09:24:49.575Z,10.15
2023-03-16T09:27:16.701Z,10.46
2023-03-16T09:29:43.831Z,11.02
2023-03-16T09:32:11.073Z,11.33
2023-03-16T09:34:38.032Z,11.51
2023-03-16T09:37:05.250Z,12.37
2023-03-16T09:39:32.060Z,12.41
2023-03-16T09:42:13.974Z,12.28
2023-03-16T09:44:46.644Z,12.45
2023-03-16T09:47:16.774Z,12.33
2023-03-16T09:49:50.259Z,11.67
2023-03-16T09:52:27.231Z,11.89
2023-03-16T09:55:01.895Z,11.67
2023-03-16T09:57:34.773Z,11.70
2023-03-16T10:00:10.719Z,11.77
2023-03-16T10:02:52.788Z,12.28
2023-03-16T10:05:27.697Z,12.32
2023-03-16T10:08:21.409Z,12.66
2023-03-16T10:11:15.710Z,12.37
2023-03-16T10:14:02.535Z,12.17
2023-03-16T10:16:43.578Z,11.69
2023-03-16T10:19:19.690Z,11.62
2023-03-16T10:21:49.040Z,11.78
2023-03-16T10:24:27.166Z,12.58
2023-03-16T10:27:00.398Z,12.61
2023-03-16T10:29:34.564Z,12.91
2023-03-16T10:32:12.267Z,13.38
2023-03-16T10:34:39.042Z,13.50
2023-03-16T10:37:06.132Z,13.71
2023-03-16T10:39:37.282Z,14.14
2023-03-16T10:42:04.189Z,13.45
2023-03-16T10:44:31.026Z,13.58
2023-03-16T10:47:05.120Z,13.35
2023-03-16T10:49:44.426Z,13.23
2023-03-16T10:52:14.367Z,13.23
2023-03-16T10:54:47.839Z,12.64
2023-03-16T10:57:20.910Z,12.71
2023-03-16T11:00:21.169Z,13.27
2023-03-16T11:02:49.647Z,13.46
2023-03-16T11:05:19.758Z,13.63
2023-03-16T11:08:02.592Z,13.49
2023-03-16T11:10:40.553Z,14.63
2023-03-16T11:13:21.153Z,14.79
2023-03-16T11:15:57.398Z,14.49
2023-03-16T11:18:36.775Z,13.61
2023-03-16T11:21:18.200Z,13.12
2023-03-16T11:23:49.741Z,13.25
2023-03-16T11:26:22.800Z,13.98
2023-03-16T11:29:17.766Z,13.68
2023-03-16T11:31:53.994Z,13.36
2023-03-16T11:34:31.956Z,13.79
2023-03-16T11:37:05.140Z,13.61
2023-03-16T11:40:02.211Z,13.18
2023-03-16T11:42:35.745Z,13.43
2023-03-16T11:45:30.936Z,14.10
2023-03-16T11:48:03.993Z,14.74
2023-03-16T11:50:49.733Z,14.49
2023-03-16T11:53:36.996Z,14.52
2023-03-16T11:56:18.722Z,14.24
2023-03-16T11:59:03.674Z,13.88
2023-03-16T12:02:08.593Z,14.05
2023-03-16T12:04:38.378Z,14.18
2023-03-16T12:07:12.713Z,14.11
2023-03-16T12:09:58.835Z,14.91
2023-03-16T12:12:37.837Z,15.41
2023-03-16T12:15:40.232Z,14.83
2023-03-16T12:18:36.497Z,15.49
2023-03-16T12:21:07.554Z,14.13
2023-03-16T12:23:53.329Z,14.01
2023-03-16T12:26:23.399Z,13.46
2023-03-16T12:28:54.262Z,13.17
2023-03-16T12:31:37.526Z,11.94
2023-03-16T12:34:09.151Z,12.56
2023-03-16T12:37:02.808Z,11.71
2023-03-16T12:39:51.627Z,11.43
2023-03-16T12:42:42.798Z,11.45
2023-03-16T12:45:54.616Z,11.48
2023-03-16T12:48:21.288Z,11.45
2023-03-16T12:50:57.742Z,11.45
2023-03-16T12:53:44.986Z,11.47
2023-03-16T12:56:17.854Z,12.07
2023-03-16T12:58:50.183Z,11.83
2023-03-16T13:01:20.000Z,11.74
2023-03-16T13:03:50.518Z,12.36
2023-03-16T13:06:20.510Z,12.19
2023-03-16T13:08:59.858Z,12.10
2023-03-16T13:11:28.547Z,12.03
2023-03-16T13:14:01.775Z,12.25
2023-03-16T13:16:36.230Z,12.26
2023-03-16T13:19:29.249Z,12.02
2023-03-16T13:22:20.960Z,11.74
2023-03-16T13:25:25.610Z,12.55
2023-03-16T13:27:55.899Z,12.28
2023-03-16T13:30:34.264Z,12.40
2023-03-16T13:33:14.608Z,12.71
2023-03-16T13:35:41.737Z,12.57
2023-03-16T13:38:22.568Z,12.99
2023-03-16T13:40:51.686Z,12.49
2023-03-16T13:43:23.806Z,12.91
2023-03-16T13:45:50.733Z,12.62
2023-03-16T13:48:20.873Z,12.70
2023-03-16T13:50:57.957Z,11.89
2023-03-16T13:53:31.487Z,11.91
2023-03-16T13:56:02.137Z,12.15
2023-03-16T13:58:35.511Z,12.52
2023-03-16T14:01:05.330Z,12.26
2023-03-16T14:03:38.084Z,12.59
2023-03-16T14:06:07.384Z,13.11
2023-03-16T14:08:34.745Z,14.15
2023-03-16T14:11:02.717Z,13.65
2023-03-16T14:13:29.683Z,13.24
2023-03-16T14:15:58.939Z,13.15
2023-03-16T14:18:48.217Z,13.38
2023-03-16T14:21:22.100Z,13.36
2023-03-16T14:23:53.621Z,13.91
2023-03-16T14:26:24.728Z,13.94
2023-03-16T14:28:57.554Z,13.19
2023-03-16T14:31:35.638Z,13.84
2023-03-16T14:34:05.366Z,13.86
2023-03-16T14:36:38.077Z,14.10
2023-03-16T14:39:19.879Z,14.03
2023-03-16T14:41:51.376Z,13.78
2023-03-16T14:44:32.098Z,14.07
2023-03-16T14:47:00.286Z,13.63
2023-03-16T14:49:38.631Z,14.72
2023-03-16T14:52:15.370Z,14.19
2023-03-16T14:54:42.231Z,13.71
2023-03-16T14:57:17.015Z,12.88
2023-03-16T14:59:43.844Z,12.67
2023-03-16T15:02:17.620Z,12.36
2023-03-16T15:04:44.993Z,11.77
2023-03-16T15:07:23.984Z,12.01
2023-03-16T15:09:53.893Z,11.51
2023-03-16T15:12:24.606Z,11.37
2023-03-16T15:15:09.982Z,11.37
2023-03-16T15:17:37.100Z,11.15
2023-03-16T15:20:05.362Z,10.85
2023-03-16T15:22:36.868Z,10.85
2023-03-16T15:25:36.585Z,10.85
2023-03-16T15:28:17.534Z,10.64
2023-03-16T15:31:00.976Z,10.67
2023-03-16T15:33:28.480Z,10.69
2023-03-16T15:35:58.760Z,10.48
2023-03-16T15:38:28.216Z,10.39
2023-03-16T15:40:55.762Z,10.56
2023-03-16T15:43:28.769Z,10.39
2023-03-16T15:45:57.574Z,10.55
2023-03-16T15:48:25.458Z,10.62
2023-03-16T15:50:54.796Z,10.35
2023-03-16T15:53:39.382Z,10.22
2023-03-16T15:56:11.085Z,10.09
2023-03-16T15:58:40.211Z,9.96
2023-03-16T16:01:08.797Z,9.49
2023-03-16T16:03:35.676Z,9.29
2023-03-16T16:06:02.489Z,9.17
2023-03-16T16:08:29.223Z,9.07
2023-03-16T16:10:56.542Z,8.94
2023-03-16T16:13:43.021Z,8.90
2023-03-16T16:16:14.116Z,8.75
2023-03-16T16:18:41.564Z,8.65
2023-03-16T16:21:23.377Z,8.61
2023-03-16T16:23:55.066Z,8.48
2023-03-16T16:26:45.521Z,8.58
2023-03-16T16:29:22.164Z,8.35
2023-03-16T16:31:49.187Z,8.18
2023-03-16T16:34:18.536Z,8.18
2023-03-16T16:36:45.576Z,8.26
2023-03-16T16:39:12.638Z,8.14
2023-03-16T16:41:40.676Z,8.16
2023-03-16T16:44:20.213Z,8.15
2023-03-16T16:46:49.372Z,7.97
2023-03-16T16:49:21.559Z,7.98
2023-03-16T16:51:48.391Z,7.84
2023-03-16T16:54:27.778Z,7.87
2023-03-16T16:56:56.462Z,7.81
2023-03-16T16:59:32.451Z,7.99
2023-03-16T17:02:01.877Z,7.75
2023-03-16T17:04:29.707Z,7.75
2023-03-16T17:06:59.768Z,7.59
2023-03-16T17:09:28.105Z,7.62
2023-03-16T17:11:58.703Z,7.58
2023-03-16T17:14:27.590Z,7.55
2023-03-16T17:16:55.207Z,7.41
2023-03-16T17:19:25.875Z,7.45
2023-03-16T17:21:55.521Z,7.31
2023-03-16T17:24:22.730Z,7.28
2023-03-16T17:26:52.404Z,7.20
2023-03-16T17:29:27.242Z,7.17
2023-03-16T17:31:54.429Z,7.27
2023-03-16T17:34:27.317Z,7.12
2023-03-16T17:36:55.127Z,7.18
2023-03-16T17:39:28.993Z,7.08
2023-03-16T17:42:05.485Z,7.07
2023-03-16T17:44:39.622Z,6.96
2023-03-16T17:47:19.177Z,6.97
2023-03-16T17:49:48.693Z,7.02
2023-03-16T17:52:18.968Z,6.95
2023-03-16T17:54:47.274Z,7.02
2023-03-16T17:57:22.150Z,7.00
2023-03-16T17:59:48.998Z,6.95
2023-03-16T18:02:28.026Z,6.88
2023-03-16T18:04:55.094Z,6.86
2023-03-16T18:07:21.899Z,6.90
2023-03-16T18:09:49.124Z,6.91
2023-03-16T18:12:16.598Z,6.98
2023-03-16T18:14:43.786Z,6.85
2023-03-16T18:17:26.701Z,6.84
2023-03-16T18:19:53.811Z,6.98
2023-03-16T18:22:22.953Z,6.87
2023-03-16T18:24:51.606Z,6.84
2023-03-16T18:27:18.582Z,6.76
2023-03-16T18:29:48.339Z,6.64
2023-03-16T18:32:24.144Z,6.60
2023-03-16T18:34:52.599Z,6.70
2023-03-16T18:37:22.917Z,6.63
2023-03-16T18:39:51.510Z,6.59
2023-03-16T18:42:24.009Z,6.61
2023-03-16T18:44:51.528Z,6.56
2023-03-16T18:47:22.220Z,6.57
2023-03-16T18:49:52.902Z,6.60
2023-03-16T18:52:22.743Z,6.67
2023-03-16T18:54:50.409Z,6.59
2023-03-16T18:57:20.066Z,6.58
2023-03-16T18:59:47.737Z,6.57
2023-03-16T19:02:27.305Z,6.67
2023-03-16T19:04:56.792Z,6.67
2023-03-16T19:07:32.478Z,6.63
2023-03-16T19:10:14.647Z,6.65
2023-03-16T19:12:41.729Z,6.85
2023-03-16T19:15:22.112Z,6.67
2023-03-16T19:17:50.018Z,6.71
2023-03-16T19:20:22.471Z,6.69
2023-03-16T19:22:51.520Z,6.65
2023-03-16T19:25:29.107Z,6.61
2023-03-16T19:27:56.889Z,6.57
2023-03-16T19:30:26.875Z,6.57
2023-03-16T19:32:55.529Z,6.54
2023-03-16T19:35:33.755Z,6.64
2023-03-16T19:38:08.427Z,6.66
2023-03-16T19:40:35.334Z,6.57
2023-03-16T19:43:02.148Z,6.56
2023-03-16T19:45:34.175Z,6.53
2023-03-16T19:48:01.627Z,6.63
2023-03-16T19:50:29.545Z,6.56
2023-03-16T19:53:00.152Z,6.54
2023-03-16T19:55:31.581Z,6.63
2023-03-16T19:58:20.681Z,6.52
2023-03-16T20:00:47.919Z,6.59
2023-03-16T20:03:14.922Z,6.59
2023-03-16T20:05:41.699Z,6.67
2023-03-16T20:08:22.907Z,6.54
2023-03-16T20:10:50.911Z,6.50
2023-03-16T20:13:18.422Z,6.57
2023-03-16T20:15:45.400Z,6.69
2023-03-16T20:18:14.848Z,6.57
2023-03-16T20:20:43.238Z,6.43
2023-03-16T20:23:21.313Z,6.45
2023-03-16T20:25:49.275Z,6.48
2023-03-16T20:28:21.514Z,6.42
2023-03-16T20:30:49.616Z,6.45
2023-03-16T20:33:18.575Z,6.46
2023-03-16T20:35:46.257Z,6.49
2023-03-16T20:38:14.313Z,6.35
2023-03-16T20:40:46.505Z,6.36
2023-03-16T20:43:30.264Z,6.43
2023-03-16T20:46:02.346Z,6.34
2023-03-16T20:48:29.539Z,6.26
2023-03-16T20:50:58.137Z,6.26
2023-03-16T20:53:25.462Z,6.34
2023-03-16T20:55:53.184Z,6.16
2023-03-16T20:58:25.366Z,6.15
2023-03-16T21:00:57.571Z,6.10
2023-03-16T21:03:27.688Z,6.04
2023-03-16T21:05:58.436Z,5.97
2023-03-16T21:08:26.366Z,5.97
2023-03-16T21:10:55.132Z,5.96
2023-03-16T21:13:27.951Z,5.94
2023-03-16T21:15:55.737Z,5.95
2023-03-16T21:18:22.687Z,6.13
2023-03-16T21:20:50.625Z,5.96
2023-03-16T21:23:20.753Z,5.96
2023-03-16T21:25:49.283Z,5.91
2023-03-16T21:28:17.779Z,5.93
2023-03-16T21:30:47.584Z,6.01
2023-03-16T21:33:37.616Z,5.97
2023-03-16T21:36:08.337Z,5.94
2023-03-16T21:38:35.311Z,5.97
2023-03-16T21:41:02.204Z,5.94
2023-03-16T21:43:29.194Z,5.94
2023-03-16T21:45:57.528Z,6.01
2023-03-16T21:48:28.201Z,6.01
2023-03-16T21:50:55.785Z,6.04
2023-03-16T21:53:25.557Z,6.02
2023-03-16T21:55:54.474Z,6.04
2023-03-16T21:58:23.223Z,6.09
2023-03-16T22:00:52.760Z,6.01
2023-03-16T22:03:47.941Z,6.06
2023-03-16T22:06:16.668Z,6.05
2023-03-16T22:08:44.020Z,6.08
2023-03-16T22:11:19.961Z,6.07
2023-03-16T22:13:46.781Z,6.10
2023-03-16T22:16:16.324Z,6.08
2023-03-16T22:18:44.672Z,6.06
2023-03-16T22:21:25.113Z,6.07
2023-03-16T22:23:53.056Z,6.07
2023-03-16T22:26:22.553Z,6.09
2023-03-16T22:28:50.809Z,6.00
2023-03-16T22:31:20.897Z,6.04
2023-03-16T22:33:48.744Z,6.04
2023-03-16T22:36:19.827Z,6.02
2023-03-16T22:38:52.875Z,5.97
2023-03-16T22:41:19.609Z,6.00
2023-03-16T22:43:47.177Z,5.98
2023-03-16T22:46:26.100Z,6.01
2023-03-16T22:48:54.212Z,5.95
2023-03-16T22:51:27.665Z,5.95
2023-03-16T22:53:59.684Z,5.95
2023-03-16T22:56:27.200Z,5.96
2023-03-16T22:59:03.349Z,5.95
2023-03-16T23:01:34.433Z,5.90
2023-03-16T23:04:01.925Z,5.81
2023-03-16T23:06:35.089Z,5.83
2023-03-16T23:09:02.296Z,5.83
2023-03-16T23:11:32.874Z,5.86
2023-03-16T23:14:00.850Z,5.82
2023-03-16T23:16:34.746Z,5.84
2023-03-16T23:19:03.230Z,5.85
2023-03-16T23:21:30.714Z,5.95
2023-03-16T23:24:03.997Z,5.89
2023-03-16T23:26:32.045Z,5.87
2023-03-16T23:28:59.530Z,5.92
2023-03-16T23:31:27.224Z,5.91
2023-03-16T23:33:54.206Z,5.94
2023-03-16T23:36:24.480Z,5.94
2023-03-16T23:38:51.758Z,5.96
2023-03-16T23:41:22.717Z,5.97
2023-03-16T23:43:50.711Z,5.95
2023-03-16T23:46:20.035Z,6.04
2023-03-16T23:48:49.175Z,5.98
2023-03-16T23:51:29.509Z,6.04
2023-03-16T23:53:57.477Z,6.01
2023-03-16T23:56:25.245Z,6.02
2023-03-16T23:58:52.121Z,6.06
